WetterOnline ( http://www.wetteronline.de )

Wetter aktuell Kiel

Aktuelles Wetter: Kiel/Holtenau (27m)

6-stündlich | Neueste Meldungen
Ortszeit Temperatur Wetter
Sa, 21.07. 20:00 24.6° C wolkig
Sa, 21.07. 14:00 24.5° C leicht bewölkt
Sa, 21.07. 8:00 18.5° C wolkenlos
Sa, 21.07. 2:00 14.2° C wolkenlos
Fr, 20.07. 20:00 23.0° C wolkenlos
Fr, 20.07. 14:00 23.2° C wolkenlos
Fr, 20.07. 8:00 14.8° C wolkenlos
Fr, 20.07. 2:00 11.9° C wolkenlos
Ortszeit Temperatur Wetter
Sa, 21.07. 21:00 23.4° C bewölkt
Sa, 21.07. 20:50 23.4° C bewölkt
Sa, 21.07. 20:40 23.9° C bewölkt
Sa, 21.07. 20:30 24.1° C bewölkt
Sa, 21.07. 20:20 24.1° C bewölkt
Sa, 21.07. 20:10 24.2° C bewölkt
Sa, 21.07. 20:00 24.6° C wolkig
Sa, 21.07. 19:30 25.1° C wolkenlos
Sa, 21.07. 19:00 25.0° C wolkenlos
Sa, 21.07. 18:30 25.5° C fast wolkenlos
Sa, 21.07. 18:00 25.7° C wolkenlos
Ortszeit Relative Feuchte Sichtweite
Sa, 21.07. 20:00 43% 30 km
Sa, 21.07. 14:00 40% 11 km
Sa, 21.07. 8:00 76% 35 km
Sa, 21.07. 2:00 81% 29 km
Fr, 20.07. 20:00 41% 40 km
Fr, 20.07. 14:00 38% 10 km
Fr, 20.07. 8:00 80% 9 km
Fr, 20.07. 2:00 85% 40 km
Ortszeit Relative Feuchte Sichtweite
Sa, 21.07. 21:00 49% 35 km
Sa, 21.07. 20:50 49% -
Sa, 21.07. 20:40 47% -
Sa, 21.07. 20:30 47% 40 km
Sa, 21.07. 20:20 47% -
Sa, 21.07. 20:10 46% -
Sa, 21.07. 20:00 43% 30 km
Sa, 21.07. 19:30 43% 40 km
Sa, 21.07. 19:00 41% 35 km
Sa, 21.07. 18:30 37% 25 km
Sa, 21.07. 18:00 36% 10 km
Ortszeit Niederschlagsmenge Niederschlagsart
Sa, 21.07. 20:00 0.0 l/m2 in 12 Std. -
Sa, 21.07. 14:00 0.0 l/m2 in 6 Std. -
Sa, 21.07. 8:00 0.0 l/m2 in 12 Std. -
Sa, 21.07. 2:00 0.0 l/m2 in 6 Std. -
Fr, 20.07. 20:00 0.0 l/m2 in 12 Std. -
Fr, 20.07. 14:00 0.0 l/m2 in 6 Std. -
Fr, 20.07. 8:00 0.0 l/m2 in 12 Std. -
Fr, 20.07. 2:00 0.0 l/m2 in 6 Std. -
Ortszeit Niederschlagsmenge Niederschlagsart
Sa, 21.07. 21:00 0.0 l/m2 in 1 Std. -
Sa, 21.07. 20:50 keine Meldung -
Sa, 21.07. 20:40 keine Meldung -
Sa, 21.07. 20:30 0.0 l/m2 in 1 Std. -
Sa, 21.07. 20:20 keine Meldung -
Sa, 21.07. 20:10 keine Meldung -
Sa, 21.07. 20:00 0.0 l/m2 in 1 Std. -
Sa, 21.07. 19:30 0.0 l/m2 in 1 Std. -
Sa, 21.07. 19:00 0.0 l/m2 in 1 Std. -
Sa, 21.07. 18:30 0.0 l/m2 in 1 Std. -
Sa, 21.07. 18:00 0.0 l/m2 in 1 Std. -
Ortszeit Stärke Spitze Richtung
km/h Bft. km/h Grad Sektor
Sa, 21.07. 20:00 9 2 24 70° O
Sa, 21.07. 14:00 17 3 20 60° NO
Sa, 21.07. 8:00 2 1 7 340° N
Sa, 21.07. 2:00 4 1 11 250° W
Fr, 20.07. 20:00 11 2 25 40° NO
Fr, 20.07. 14:00 11 2 25 60° NO
Fr, 20.07. 8:00 13 3 17 320° NW
Fr, 20.07. 2:00 6 1 28 290° W
Ortszeit Stärke Spitze Richtung
km/h Bft. km/h Grad Sektor
Sa, 21.07. 21:00 7 2 11 70° O
Sa, 21.07. 20:50 7 2 - 70° O
Sa, 21.07. 20:40 7 2 - 90° O
Sa, 21.07. 20:30 7 2 11 70° O
Sa, 21.07. 20:20 7 2 - 70° O
Sa, 21.07. 20:10 7 2 - 80° O
Sa, 21.07. 20:00 9 2 15 70° O
Sa, 21.07. 19:30 9 2 15 80° O
Sa, 21.07. 19:00 11 2 22 70° O
Sa, 21.07. 18:30 13 3 20 70° O
Sa, 21.07. 18:00 15 3 22 60° NO
Ortszeit Untergrenze Bedeckung Gattung
total tief tief mittel hoch
Sa, 21.07. 20:00 2700 m 6/8 4/8 - - -
Sa, 21.07. 14:00 2700 m 3/8 3/8 - - -
Sa, 21.07. 8:00 - 0/8 0/8 - - -
Sa, 21.07. 2:00 - 0/8 0/8 - - -
Fr, 20.07. 20:00 - 0/8 0/8 - - -
Fr, 20.07. 14:00 - 0/8 0/8 - - -
Fr, 20.07. 8:00 - 0/8 0/8 - - -
Fr, 20.07. 2:00 - 0/8 0/8 - - -
Ortszeit Bedeckungsgrad in Achtel und Wolkenuntergrenze
Sa, 21.07. 21:00 7(2700m) 8(3300m)
Sa, 21.07. 20:50 7(2700m) 8(3300m)
Sa, 21.07. 20:40 6(2700m) 8(3300m)
Sa, 21.07. 20:30 7(2700m) 8(3300m)
Sa, 21.07. 20:20 7(2700m) 8(3300m)
Sa, 21.07. 20:10 7(2700m)
Sa, 21.07. 20:00 4(2700m) 6(3900m)
Sa, 21.07. 19:30 2(3900m)
Sa, 21.07. 19:00 keine Wolken
Sa, 21.07. 18:30 1(3600m)
Sa, 21.07. 18:00 keine Wolken
Ortszeit Luftdruck NN (hPa) Tendenz (hPa in 3 Std.)
Sa, 21.07. 20:00 1012 - 0,7
Sa, 21.07. 14:00 1013 - 0,6
Sa, 21.07. 8:00 1013 + 0,2
Sa, 21.07. 2:00 1014 0,0
Fr, 20.07. 20:00 1013 - 1,0
Fr, 20.07. 14:00 1015 - 1,0
Fr, 20.07. 8:00 1017 - 0,2
Fr, 20.07. 2:00 1017 - 0,3
Ortszeit Luftdruck NN (hPa) Tendenz (hPa in 3 Std.)
Sa, 21.07. 21:00 1012 - 0,5
Sa, 21.07. 20:50 1012 keine Meldung
Sa, 21.07. 20:40 1012 keine Meldung
Sa, 21.07. 20:30 1012 - 0,8
Sa, 21.07. 20:20 1012 keine Meldung
Sa, 21.07. 20:10 1012 keine Meldung
Sa, 21.07. 20:00 1012 - 0,7
Sa, 21.07. 19:30 1012 - 0,7
Sa, 21.07. 19:00 1012 - 0,7
Sa, 21.07. 18:30 1012 - 0,7
Sa, 21.07. 18:00 1012 - 0,6
Ortszeit Schneehöhe (cm)
Sa, 21.07. 20:00 -
Sa, 21.07. 14:00 -
Sa, 21.07. 8:00 -
Sa, 21.07. 2:00 -
Fr, 20.07. 20:00 -
Fr, 20.07. 14:00 -
Fr, 20.07. 8:00 -
Fr, 20.07. 2:00 -
Ortszeit Schneehöhe (cm)
Sa, 21.07. 21:00 -
Sa, 21.07. 20:50 -
Sa, 21.07. 20:40 -
Sa, 21.07. 20:30 -
Sa, 21.07. 20:20 -
Sa, 21.07. 20:10 -
Sa, 21.07. 20:00 -
Sa, 21.07. 19:30 -
Sa, 21.07. 19:00 -
Sa, 21.07. 18:30 -
Sa, 21.07. 18:00 -
Link zu dieser Seite / Seite empfehlen

Das Wetter in ...